Main page
METAR-TAF:

METAR-TAF

Airports :

Mönchengladbach Airport

Mönchengladbach, Germany

latitude: 51-13-49N, longitude: 006-30-16E, elevation: 38 m

Current weather observation

The report was made 19 minutes ago, at 19:20 UTC
Wind 7 kt from the Northeast, varying between North and East
Temperature 3°C
Humidity 93%
Pressure 1022 hPa
Visibility: 7000 m
Overcast at a height of 600 ft

METAR: EDLN 281920Z 05007KT 010V090 7000 OVC006 03/02 Q1022

Time: 20:39 (19:39 UTC)

Forecast

The report was made 2 hours and 39 minutes ago, at 17:00 UTC
Forecast valid from 28 at 18 UTC to 29 at 03 UTC
Wind 6 kt from the East
Visibility: 6000 m
Becoming
from 28 at 18 UTC to 28 at 21 UTC
Broken clouds at a height of 600 ft
Temporary
from 28 at 19 UTC to 29 at 03 UTC
Visibility: 3000 m
Broken clouds at a height of 400 ft
mist

TAF: EDLN 281700Z 2818/2903 09006KT 6000 NSC BECMG 2818/2821 BKN006 TEMPO 2819/2903 3000 BR BKN004

Weather observations and forecasts of more than 4000 airports (METAR and TAF reports).

The available stations are represented by yellow and red dots on the map.

Hover mouse over dot to see the name of the station.

Then click to see weather observations and forecasts.

To change the map : click on the green buttons with a black cross to zoom in, on the green button with a dash to zoom out, or on the green arrows for adjacent maps.


METAR-TAF: